createdAt,value
2022-10-24T00:01:25.091Z,4.57
2022-10-24T00:03:52.902Z,5.15
2022-10-24T00:06:21.242Z,5.43
2022-10-24T00:08:49.062Z,7.28
2022-10-24T00:11:22.558Z,4.85
2022-10-24T00:13:51.117Z,6.50
2022-10-24T00:16:21.936Z,7.72
2022-10-24T00:18:49.514Z,6.62
2022-10-24T00:21:17.229Z,6.68
2022-10-24T00:23:45.337Z,6.85
2022-10-24T00:26:13.096Z,5.43
2022-10-24T00:28:41.131Z,6.97
2022-10-24T00:31:15.701Z,7.12
2022-10-24T00:33:43.597Z,6.57
2022-10-24T00:36:14.004Z,6.40
2022-10-24T00:38:41.521Z,6.43
2022-10-24T00:41:14.210Z,6.45
2022-10-24T00:43:42.030Z,6.85
2022-10-24T00:46:09.785Z,7.43
2022-10-24T00:48:40.834Z,8.18
2022-10-24T00:51:24.869Z,5.93
2022-10-24T00:56:38.435Z,5.22
2022-10-24T00:59:07.586Z,5.25
2022-10-24T01:01:35.628Z,5.50
2022-10-24T01:04:03.927Z,6.60
2022-10-24T01:06:58.076Z,6.85
2022-10-24T01:10:03.549Z,6.22
2022-10-24T01:13:06.431Z,6.05
2022-10-24T01:15:50.946Z,6.22
2022-10-24T01:18:35.351Z,4.78
2022-10-24T01:21:26.952Z,8.18
2022-10-24T01:24:26.971Z,7.00
2022-10-24T01:27:25.462Z,6.57
2022-10-24T01:30:06.307Z,4.37
2022-10-24T01:32:42.368Z,6.60
2022-10-24T01:35:37.148Z,4.62
2022-10-24T01:38:11.172Z,5.03
2022-10-24T01:40:52.865Z,5.85
2022-10-24T01:43:29.317Z,6.70
2022-10-24T01:46:05.332Z,6.15
2022-10-24T01:48:36.305Z,6.32
2022-10-24T01:51:04.778Z,6.65
2022-10-24T01:53:32.207Z,5.85
2022-10-24T01:56:00.422Z,6.03
2022-10-24T01:58:27.826Z,5.05
2022-10-24T02:00:59.183Z,7.20
2022-10-24T02:03:32.131Z,7.30
2022-10-24T02:06:04.420Z,4.65
2022-10-24T02:08:36.215Z,4.93
2022-10-24T02:11:06.940Z,5.82
2022-10-24T02:14:01.995Z,3.30
2022-10-24T02:16:30.099Z,7.30
2022-10-24T02:18:58.095Z,6.75
2022-10-24T02:21:47.505Z,6.00
2022-10-24T02:24:28.913Z,5.32
2022-10-24T02:27:01.792Z,5.68
2022-10-24T02:30:01.246Z,7.60
2022-10-24T02:32:35.387Z,6.47
2022-10-24T02:35:05.311Z,6.57
2022-10-24T02:37:34.646Z,4.62
2022-10-24T02:40:04.029Z,4.50
2022-10-24T02:42:32.097Z,4.97
2022-10-24T02:45:00.456Z,8.52
2022-10-24T02:47:28.700Z,6.00
2022-10-24T02:49:56.434Z,5.45
2022-10-24T02:52:24.133Z,5.90
2022-10-24T02:54:51.952Z,5.85
2022-10-24T02:57:21.904Z,7.68
2022-10-24T02:59:49.645Z,6.40
2022-10-24T03:02:17.030Z,7.72
2022-10-24T03:04:44.766Z,6.35
2022-10-24T03:07:12.296Z,7.85
2022-10-24T03:09:39.716Z,6.97
2022-10-24T03:12:07.483Z,7.12
2022-10-24T03:14:34.912Z,4.75
2022-10-24T03:17:02.316Z,5.35
2022-10-24T03:19:29.984Z,5.93
2022-10-24T03:21:57.442Z,7.43
2022-10-24T03:24:36.955Z,7.28
2022-10-24T03:27:12.273Z,8.75
2022-10-24T03:29:39.739Z,5.57
2022-10-24T03:32:07.245Z,6.18
2022-10-24T03:34:34.961Z,6.55
2022-10-24T03:37:02.469Z,14.32
2022-10-24T03:39:29.867Z,5.12
2022-10-24T03:41:57.609Z,5.25
2022-10-24T03:44:25.029Z,5.87
2022-10-24T03:46:52.468Z,8.73
2022-10-24T03:49:20.133Z,6.87
2022-10-24T03:51:47.569Z,5.12
2022-10-24T03:54:15.375Z,7.03
2022-10-24T03:56:44.144Z,8.30
2022-10-24T03:59:11.576Z,6.10
2022-10-24T04:01:39.149Z,6.03
2022-10-24T04:04:06.879Z,6.32
2022-10-24T04:06:36.478Z,5.53
2022-10-24T04:09:04.648Z,7.72
2022-10-24T04:11:32.417Z,6.90
2022-10-24T04:16:34.821Z,5.93
2022-10-24T04:19:02.605Z,6.40
2022-10-24T04:21:30.014Z,4.32
2022-10-24T04:23:57.848Z,5.60
2022-10-24T04:26:25.336Z,5.97
2022-10-24T04:28:52.774Z,6.43
2022-10-24T04:31:23.432Z,6.97
2022-10-24T04:33:51.256Z,5.53
2022-10-24T04:36:18.723Z,4.30
2022-10-24T04:38:46.816Z,6.12
2022-10-24T04:41:15.331Z,8.00
2022-10-24T04:43:42.734Z,5.72
2022-10-24T04:46:12.274Z,4.57
2022-10-24T04:48:39.747Z,4.97
2022-10-24T04:51:07.225Z,6.78
2022-10-24T04:53:34.953Z,6.53
2022-10-24T04:56:02.416Z,4.18
2022-10-24T04:58:29.844Z,7.50
2022-10-24T05:00:57.500Z,7.10
2022-10-24T05:03:24.958Z,5.43
2022-10-24T05:05:52.393Z,6.82
2022-10-24T05:08:20.148Z,7.28
2022-10-24T05:10:47.551Z,6.40
2022-10-24T05:13:15.939Z,7.12
2022-10-24T05:15:43.728Z,5.82
2022-10-24T05:18:11.435Z,7.55
2022-10-24T05:20:38.878Z,6.75
2022-10-24T05:23:06.778Z,9.00
2022-10-24T05:25:34.205Z,8.68
2022-10-24T05:28:01.625Z,7.90
2022-10-24T05:30:29.841Z,6.55
2022-10-24T05:32:57.653Z,7.68
2022-10-24T05:35:25.060Z,7.45
2022-10-24T05:37:52.768Z,7.20
2022-10-24T05:40:20.182Z,6.50
2022-10-24T05:42:48.782Z,7.95
2022-10-24T05:45:16.457Z,7.62
2022-10-24T05:47:44.233Z,5.97
2022-10-24T05:50:11.990Z,6.90
2022-10-24T05:52:46.165Z,9.55
2022-10-24T05:55:17.932Z,6.62
2022-10-24T05:57:46.648Z,8.30
2022-10-24T06:00:16.315Z,6.93
2022-10-24T06:02:44.695Z,9.15
2022-10-24T06:05:12.612Z,9.38
2022-10-24T06:07:42.195Z,11.07
2022-10-24T06:10:11.690Z,7.00
2022-10-24T06:12:39.665Z,9.85
2022-10-24T06:15:09.210Z,7.60
2022-10-24T06:17:36.951Z,9.02
2022-10-24T06:20:05.087Z,7.70
2022-10-24T06:22:32.635Z,7.82
2022-10-24T06:25:00.847Z,9.77
2022-10-24T06:27:28.570Z,7.90
2022-10-24T06:29:55.989Z,6.75
2022-10-24T06:32:23.695Z,8.60
2022-10-24T06:34:51.257Z,7.47
2022-10-24T06:37:18.774Z,10.57
2022-10-24T06:39:46.422Z,8.40
2022-10-24T06:42:13.913Z,11.73
2022-10-24T06:44:41.788Z,10.38
2022-10-24T06:47:09.547Z,8.70
2022-10-24T06:49:37.053Z,8.63
2022-10-24T06:52:04.702Z,10.25
2022-10-24T06:54:33.696Z,9.90
2022-10-24T06:57:01.392Z,9.40
2022-10-24T06:59:28.887Z,9.20
2022-10-24T07:02:00.366Z,12.00
2022-10-24T07:04:30.922Z,10.80
2022-10-24T07:06:58.683Z,10.90
2022-10-24T07:09:26.203Z,9.95
2022-10-24T07:11:53.655Z,9.23
2022-10-24T07:14:21.361Z,12.88
2022-10-24T07:16:49.156Z,11.50
2022-10-24T07:19:16.559Z,10.70
2022-10-24T07:21:44.475Z,11.15
2022-10-24T07:24:12.868Z,10.38
2022-10-24T07:26:40.456Z,12.70
2022-10-24T07:29:08.245Z,6.97
2022-10-24T07:31:36.433Z,10.40
2022-10-24T07:34:06.565Z,11.18
2022-10-24T07:36:34.468Z,12.27
2022-10-24T07:39:02.049Z,12.18
2022-10-24T07:41:31.382Z,11.38
2022-10-24T07:43:59.922Z,11.38
2022-10-24T07:46:27.419Z,10.52
2022-10-24T07:48:55.014Z,11.15
2022-10-24T07:51:22.984Z,11.38
2022-10-24T07:53:50.406Z,9.15
2022-10-24T07:56:18.323Z,8.73
2022-10-24T07:58:46.927Z,11.32
2022-10-24T08:01:15.703Z,7.78
2022-10-24T08:03:43.810Z,12.50
2022-10-24T08:06:14.710Z,11.95
2022-10-24T08:08:42.584Z,8.65
2022-10-24T08:11:15.660Z,12.10
2022-10-24T08:13:43.382Z,9.13
2022-10-24T08:16:13.017Z,11.65
2022-10-24T08:18:40.937Z,11.15
2022-10-24T08:21:10.171Z,9.13
2022-10-24T08:23:40.421Z,14.00
2022-10-24T08:26:08.905Z,12.32
2022-10-24T08:28:36.334Z,17.20
2022-10-24T08:31:06.515Z,10.38
2022-10-24T08:33:34.793Z,10.52
2022-10-24T08:36:05.696Z,9.80
2022-10-24T08:38:33.697Z,10.25
2022-10-24T08:41:01.280Z,12.23
2022-10-24T08:43:28.857Z,9.75
2022-10-24T08:46:37.294Z,12.43
2022-10-24T08:49:34.183Z,12.65
2022-10-24T08:52:06.576Z,10.85
2022-10-24T08:54:40.182Z,10.40
2022-10-24T08:57:23.202Z,9.15
2022-10-24T08:59:52.603Z,10.45
2022-10-24T09:02:24.099Z,8.27
2022-10-24T09:05:24.237Z,14.15
2022-10-24T09:07:56.895Z,10.93
2022-10-24T09:10:42.987Z,8.38
2022-10-24T09:13:14.260Z,16.15
2022-10-24T09:15:44.001Z,11.70
2022-10-24T09:18:23.032Z,12.15
2022-10-24T09:20:51.294Z,11.55
2022-10-24T09:23:20.818Z,9.68
2022-10-24T09:25:50.013Z,11.65
2022-10-24T09:28:17.781Z,11.00
2022-10-24T09:30:46.198Z,10.02
2022-10-24T09:33:34.177Z,9.32
2022-10-24T09:36:04.394Z,14.98
2022-10-24T09:38:40.336Z,11.12
2022-10-24T09:41:20.252Z,8.02
2022-10-24T09:43:51.097Z,11.30
2022-10-24T09:46:29.402Z,14.23
2022-10-24T09:49:15.259Z,10.48
2022-10-24T09:52:06.915Z,9.73
2022-10-24T09:54:35.524Z,8.43
2022-10-24T09:57:12.817Z,12.23
2022-10-24T09:59:58.610Z,12.10
2022-10-24T10:02:28.566Z,11.68
2022-10-24T10:05:02.118Z,10.85
2022-10-24T10:10:24.365Z,10.60
2022-10-24T10:13:14.976Z,6.87
2022-10-24T10:15:53.428Z,9.57
2022-10-24T10:18:24.721Z,8.10
2022-10-24T10:21:02.953Z,8.70
2022-10-24T10:23:33.741Z,7.32
2022-10-24T10:26:32.405Z,8.95
2022-10-24T10:29:19.989Z,9.68
2022-10-24T10:31:50.287Z,7.22
2022-10-24T10:34:23.160Z,6.55
2022-10-24T10:37:29.155Z,7.37
2022-10-24T10:40:32.835Z,7.32
2022-10-24T10:43:15.748Z,8.02
2022-10-24T10:45:56.365Z,9.45
2022-10-24T10:48:39.005Z,9.15
2022-10-24T10:51:21.642Z,6.82
2022-10-24T10:54:01.111Z,9.05
2022-10-24T10:56:33.460Z,11.85
2022-10-24T10:59:29.317Z,10.65
2022-10-24T11:02:15.270Z,11.32
2022-10-24T11:05:06.694Z,8.70
2022-10-24T11:07:48.583Z,7.75
2022-10-24T11:10:21.178Z,8.18
2022-10-24T11:12:48.762Z,7.68
2022-10-24T11:18:10.405Z,8.15
2022-10-24T11:20:43.035Z,6.82
2022-10-24T11:23:10.385Z,9.15
2022-10-24T11:25:58.900Z,7.80
2022-10-24T11:28:36.344Z,10.60
2022-10-24T11:31:08.199Z,6.47
2022-10-24T11:33:43.351Z,6.68
2022-10-24T11:36:40.609Z,7.30
2022-10-24T11:39:18.777Z,9.30
2022-10-24T11:41:53.893Z,8.43
2022-10-24T11:45:10.245Z,7.68
2022-10-24T11:47:49.896Z,9.73
2022-10-24T11:50:48.304Z,9.48
2022-10-24T11:53:34.924Z,9.55
2022-10-24T11:56:12.039Z,7.05
2022-10-24T11:58:57.899Z,7.40
2022-10-24T12:04:08.019Z,8.15
2022-10-24T12:06:54.331Z,7.18
2022-10-24T12:09:43.266Z,9.40
2022-10-24T12:12:10.584Z,8.75
2022-10-24T12:14:53.244Z,8.15
2022-10-24T12:17:50.014Z,8.50
2022-10-24T12:20:20.748Z,9.85
2022-10-24T12:22:49.083Z,8.18
2022-10-24T12:25:32.285Z,11.07
2022-10-24T12:28:05.636Z,10.00
2022-10-24T12:30:35.655Z,10.32
2022-10-24T12:33:03.263Z,8.05
2022-10-24T12:35:35.434Z,9.80
2022-10-24T12:38:15.167Z,6.62
2022-10-24T12:40:45.475Z,7.50
2022-10-24T12:43:13.238Z,10.88
2022-10-24T12:45:40.837Z,10.98
2022-10-24T12:48:34.244Z,9.55
2022-10-24T12:51:22.209Z,8.65
2022-10-24T12:54:11.691Z,7.32
2022-10-24T12:57:02.323Z,8.57
2022-10-24T12:59:31.387Z,10.75
2022-10-24T13:02:51.119Z,9.10
2022-10-24T13:05:37.641Z,10.70
2022-10-24T13:08:12.743Z,12.80
2022-10-24T13:13:28.290Z,10.13
2022-10-24T13:16:01.436Z,11.05
2022-10-24T13:18:40.375Z,11.10
2022-10-24T13:21:16.935Z,8.43
2022-10-24T13:23:46.471Z,9.88
2022-10-24T13:26:47.408Z,10.95
2022-10-24T13:29:36.275Z,9.60
2022-10-24T13:32:03.663Z,10.63
2022-10-24T13:34:44.226Z,8.70
2022-10-24T13:37:32.208Z,12.82
2022-10-24T13:40:32.000Z,13.50
2022-10-24T13:43:22.543Z,12.63
2022-10-24T13:45:52.986Z,10.32
2022-10-24T13:48:22.562Z,10.57
2022-10-24T13:51:07.569Z,16.17
2022-10-24T13:53:43.673Z,10.37
2022-10-24T13:56:13.537Z,10.60
2022-10-24T13:58:44.222Z,12.25
2022-10-24T14:01:22.673Z,13.45
2022-10-24T14:03:51.367Z,11.55
2022-10-24T14:06:24.818Z,12.68
2022-10-24T14:09:05.456Z,12.52
2022-10-24T14:11:35.328Z,14.02
2022-10-24T14:14:05.769Z,9.13
2022-10-24T14:16:35.548Z,11.32
2022-10-24T14:19:23.579Z,13.55
2022-10-24T14:21:55.718Z,10.38
2022-10-24T14:24:23.694Z,13.18
2022-10-24T14:26:53.476Z,14.70
2022-10-24T14:29:31.911Z,15.82
2022-10-24T14:32:07.979Z,11.45
2022-10-24T14:34:37.095Z,14.63
2022-10-24T14:37:07.704Z,12.95
2022-10-24T14:39:35.415Z,12.50
2022-10-24T14:42:03.099Z,12.27
2022-10-24T14:44:32.189Z,13.57
2022-10-24T14:47:25.548Z,13.30
2022-10-24T14:50:00.013Z,11.18
2022-10-24T14:52:36.571Z,11.20
2022-10-24T14:55:13.589Z,11.75
2022-10-24T14:57:47.378Z,9.18
2022-10-24T15:00:23.843Z,12.82
2022-10-24T15:02:52.727Z,12.75
2022-10-24T15:05:20.507Z,11.00
2022-10-24T15:08:16.656Z,13.10
2022-10-24T15:10:42.879Z,14.77
2022-10-24T15:13:21.321Z,14.32
2022-10-24T15:15:52.298Z,11.48
2022-10-24T15:18:25.430Z,12.23
2022-10-24T15:20:59.128Z,12.63
2022-10-24T15:23:29.843Z,10.10
2022-10-24T15:26:00.754Z,9.55
2022-10-24T15:28:36.317Z,11.73
2022-10-24T15:31:04.237Z,8.02
2022-10-24T15:33:32.359Z,10.27
2022-10-24T15:35:59.868Z,9.00
2022-10-24T15:38:27.593Z,10.93
2022-10-24T15:40:55.281Z,9.80
2022-10-24T15:43:22.761Z,9.73
2022-10-24T15:45:51.731Z,10.00
2022-10-24T15:48:19.139Z,11.07
2022-10-24T15:50:46.725Z,9.45
2022-10-24T15:53:17.749Z,11.70
2022-10-24T15:55:45.343Z,8.73
2022-10-24T15:58:14.767Z,10.73
2022-10-24T16:00:42.656Z,8.85
2022-10-24T16:03:14.521Z,9.88
2022-10-24T16:05:44.850Z,8.63
2022-10-24T16:08:14.787Z,8.40
2022-10-24T16:10:43.647Z,9.07
2022-10-24T16:13:17.646Z,6.68
2022-10-24T16:15:45.955Z,8.57
2022-10-24T16:18:13.878Z,10.43
2022-10-24T16:20:42.055Z,7.50
2022-10-24T16:23:14.558Z,10.30
2022-10-24T16:25:42.639Z,9.40
2022-10-24T16:28:10.711Z,9.80
2022-10-24T16:30:40.385Z,11.20
2022-10-24T16:33:08.236Z,8.63
2022-10-24T16:35:37.676Z,10.73
2022-10-24T16:38:06.776Z,10.57
2022-10-24T16:43:15.862Z,12.48
2022-10-24T16:45:43.420Z,14.07
2022-10-24T16:48:11.302Z,8.25
2022-10-24T16:50:41.846Z,11.05
2022-10-24T16:53:10.214Z,12.07
2022-10-24T16:55:37.747Z,11.18
2022-10-24T16:58:05.659Z,10.55
2022-10-24T17:00:33.136Z,26.42
2022-10-24T17:03:00.617Z,10.68
2022-10-24T17:05:28.877Z,8.80
2022-10-24T17:07:56.359Z,7.07
2022-10-24T17:10:25.117Z,7.22
2022-10-24T17:12:53.460Z,12.85
2022-10-24T17:15:22.337Z,12.85
2022-10-24T17:17:50.573Z,11.50
2022-10-24T17:20:18.633Z,11.57
2022-10-24T17:22:46.757Z,7.37
2022-10-24T17:25:23.964Z,11.38
2022-10-24T17:27:52.203Z,10.50
2022-10-24T17:30:29.783Z,14.70
2022-10-24T17:32:57.967Z,13.52
2022-10-24T17:35:26.208Z,8.95
2022-10-24T17:38:33.250Z,13.82
2022-10-24T17:41:09.378Z,13.40
2022-10-24T17:43:37.188Z,17.27
2022-10-24T17:46:05.255Z,14.68
2022-10-24T17:48:32.793Z,13.60
2022-10-24T17:51:01.102Z,11.05
2022-10-24T17:53:29.023Z,12.52
2022-10-24T17:55:56.681Z,9.55
2022-10-24T17:58:25.320Z,9.48
2022-10-24T18:00:53.590Z,10.68
2022-10-24T18:03:21.314Z,9.82
2022-10-24T18:05:48.923Z,11.10
2022-10-24T18:08:17.539Z,7.75
2022-10-24T18:10:45.404Z,9.52
2022-10-24T18:13:12.823Z,9.68
2022-10-24T18:15:40.486Z,8.63
2022-10-24T18:18:08.253Z,9.73
2022-10-24T18:20:35.945Z,7.95
2022-10-24T18:23:03.783Z,9.45
2022-10-24T18:25:31.570Z,13.07
2022-10-24T18:28:00.103Z,9.18
2022-10-24T18:30:27.750Z,13.65
2022-10-24T18:32:55.643Z,12.35
2022-10-24T18:35:23.144Z,12.70
2022-10-24T18:40:24.306Z,13.10
2022-10-24T18:43:04.177Z,15.63
2022-10-24T18:45:33.366Z,10.57
2022-10-24T18:48:01.317Z,10.35
2022-10-24T18:50:29.284Z,12.40
2022-10-24T18:53:10.717Z,10.75
2022-10-24T18:55:38.823Z,10.88
2022-10-24T18:58:11.318Z,12.65
2022-10-24T19:00:39.782Z,10.35
2022-10-24T19:03:34.177Z,14.25
2022-10-24T19:06:26.972Z,15.15
2022-10-24T19:08:54.987Z,13.95
2022-10-24T19:11:24.683Z,10.10
2022-10-24T19:13:52.426Z,14.43
2022-10-24T19:16:23.192Z,12.57
2022-10-24T19:18:56.384Z,11.00
2022-10-24T19:21:26.231Z,10.30
2022-10-24T19:23:54.303Z,11.73
2022-10-24T19:26:21.968Z,11.60
2022-10-24T19:28:49.832Z,13.82
2022-10-24T19:31:17.523Z,13.43
2022-10-24T19:33:45.072Z,10.40
2022-10-24T19:36:19.114Z,18.33
2022-10-24T19:38:46.976Z,18.80
2022-10-24T19:41:14.914Z,15.18
2022-10-24T19:43:42.502Z,13.88
2022-10-24T19:46:25.432Z,12.57
2022-10-24T19:48:53.315Z,14.57
2022-10-24T19:51:21.666Z,16.08
2022-10-24T19:53:51.910Z,16.83
2022-10-24T19:56:26.187Z,19.08
2022-10-24T19:58:55.000Z,17.65
2022-10-24T20:01:24.919Z,15.98
2022-10-24T20:03:55.107Z,12.18
2022-10-24T20:06:24.165Z,16.75
2022-10-24T20:08:51.785Z,12.90
2022-10-24T20:11:20.773Z,13.95
2022-10-24T20:13:50.317Z,12.93
2022-10-24T20:16:18.155Z,11.70
2022-10-24T20:18:46.006Z,14.00
2022-10-24T20:21:17.729Z,13.50
2022-10-24T20:23:48.797Z,11.50
2022-10-24T20:26:19.847Z,12.35
2022-10-24T20:28:50.912Z,12.63
2022-10-24T20:31:21.561Z,13.10
2022-10-24T20:33:49.476Z,15.02
2022-10-24T20:36:17.586Z,11.77
2022-10-24T20:38:45.438Z,11.82
2022-10-24T20:41:12.998Z,15.63
2022-10-24T20:43:40.509Z,12.37
2022-10-24T20:46:08.298Z,12.63
2022-10-24T20:48:35.742Z,13.52
2022-10-24T20:51:09.833Z,10.18
2022-10-24T20:53:38.269Z,11.73
2022-10-24T20:56:07.199Z,14.25
2022-10-24T20:58:39.110Z,13.32
2022-10-24T21:01:08.492Z,11.73
2022-10-24T21:03:36.917Z,10.90
2022-10-24T21:06:06.216Z,13.35
2022-10-24T21:08:34.154Z,19.17
2022-10-24T21:11:06.143Z,14.23
2022-10-24T21:13:34.461Z,12.55
2022-10-24T21:16:03.353Z,16.58
2022-10-24T21:18:30.798Z,13.73
2022-10-24T21:20:58.622Z,18.02
2022-10-24T21:23:26.041Z,12.18
2022-10-24T21:26:02.035Z,12.50
2022-10-24T21:28:30.186Z,14.05
2022-10-24T21:30:57.650Z,13.57
2022-10-24T21:33:25.104Z,13.35
2022-10-24T21:35:52.844Z,11.75
2022-10-24T21:38:20.382Z,17.05
2022-10-24T21:40:47.832Z,10.98
2022-10-24T21:43:15.540Z,12.98
2022-10-24T21:45:43.105Z,14.43
2022-10-24T21:48:10.579Z,15.65
2022-10-24T21:50:38.349Z,12.98
2022-10-24T21:53:05.775Z,11.27
2022-10-24T21:55:33.189Z,14.00
2022-10-24T21:58:00.945Z,9.98
2022-10-24T22:00:28.357Z,10.32
2022-10-24T22:02:56.105Z,9.95
2022-10-24T22:05:23.573Z,8.95
2022-10-24T22:07:51.334Z,13.40
2022-10-24T22:10:19.168Z,11.40
2022-10-24T22:12:46.591Z,10.27
2022-10-24T22:15:14.019Z,9.75
2022-10-24T22:17:41.766Z,11.52
2022-10-24T22:20:09.664Z,8.77
2022-10-24T22:36:16.180Z,12.10
2022-10-24T22:38:43.956Z,10.95
2022-10-24T22:41:12.043Z,12.00
2022-10-24T22:43:39.777Z,10.60
2022-10-24T22:46:11.816Z,10.35
2022-10-24T22:48:41.797Z,11.43
2022-10-24T22:51:09.423Z,8.20
2022-10-24T22:53:37.091Z,10.70
2022-10-24T22:56:13.744Z,8.95
2022-10-24T22:58:43.977Z,12.80
2022-10-24T23:01:27.648Z,11.07
2022-10-24T23:04:14.220Z,10.50
2022-10-24T23:06:54.031Z,10.57
2022-10-24T23:09:21.516Z,10.20
2022-10-24T23:15:26.453Z,11.70
2022-10-24T23:17:54.394Z,11.75
2022-10-24T23:20:39.732Z,11.63
2022-10-24T23:26:05.575Z,10.40
2022-10-24T23:28:49.207Z,9.45
2022-10-24T23:31:16.988Z,8.32
2022-10-24T23:33:44.954Z,11.07
2022-10-24T23:36:20.481Z,6.97
2022-10-24T23:38:48.642Z,13.20
2022-10-24T23:41:16.433Z,10.55
2022-10-24T23:43:44.202Z,11.77
2022-10-24T23:46:48.762Z,10.55
2022-10-24T23:49:46.587Z,10.48
2022-10-24T23:52:21.118Z,11.25
2022-10-24T23:54:48.810Z,11.20
2022-10-24T23:57:18.662Z,11.60
2022-10-24T23:59:46.386Z,9.98
